Key Field
KMEI : now visible

Airfield :











YOU CAN JOIN US ON...

 
LOGIN :

Register | Disclaimer

   EN    FR    IT 

 









Legend :    VFR   Marginal VFR   IFR   Intensive IFR   Very Intensive IFR
Visi :
Ceiling :
>= 8 km
>= 3000ft
5 to 8 km
1000 to 3000 ft
1500m to 5 km
500 to 1000 ft
800 to 1500m
200 to 500 ft
< 800m
< 200 ft
Symbols :   Thunderstorms  Fog  Heavy snow  Heavy precipitations  Wind > 20 kt






- Airport Elevation : 297 ft
- IATA code : MEI


KMEI - Key Field

CURRENT METAR :
  • 291458Z 13003KT 6SM -RA OVC075 10/06 A2993 RMK AO2 RAB41 SLP134 P0001 60001 I1000 I3/// T01000061 53010

EXPIRED METARs :
  • 291358Z 03006KT 10SM FEW065 OVC095 10/06 A2987 RMK AO2 RAB24E49 SLP115 P0000 I1000 T01000056
  • 291258Z 04005KT 10SM OVC095 09/05 A2991 RMK AO2 SLP127 I1000 T00940050

TAF KMEI
Valid from the 29 at 12:00 until the 30 at 12:00 UTC


291146Z 2912/3012 04005KT P6SM SCT080 BKN110
FM291600 07010KT 4SM -RA OVC015
FM292100 06008KT P6SM -RA BKN007
FM300000 03007KT P6SM OVC015
FM300900 03002KT 6SM BR OVC007



MET'MAP, your aeronautical weather chart ! - Copyright ORBIFLY December 2007 - Disclaimer

ORBIFLY MET'MAP TEAM :

Programming & Development : Alexandra Zaïnal
Concept & original design : Baudouin d'Aumeries
Assistance for programming : Marc-Olivier Méhu
Technical & hardware support : Manuel Goepfert

Contact : metmap@orbifly.com




SOURCES & CREDITS :

   NOAA       Earth
Advisory